Time;durP1;ratioP1;P1;durP2;ratioP2;P2;SDS_P1;SDS_P2;PMS_P1;PMS_P2;Temp;Humidity;BMP_temperature;BMP_pressure;BME280_temperature;BME280_humidity;BME280_pressure;Samples;Min_cycle;Max_cycle;Signal;HPM_P1;HPM_P2
2022/12/20 00:01:09;;;;;;;13.27;2.92;;;;;;;;;;5095968;28;20066;-71
2022/12/20 00:03:36;;;;;;;9.85;2.55;;;;;;;;;;5095840;28;20044;-71
2022/12/20 00:06:02;;;;;;;10.43;2.85;;;;;;;;;;5096197;28;20050;-70
2022/12/20 00:08:28;;;;;;;13.27;2.60;;;;;;;;;;5095973;28;20051;-70
2022/12/20 00:10:54;;;;;;;10.75;2.38;;;;;;;;;;5095757;28;20112;-70
2022/12/20 00:13:21;;;;;;;10.00;2.22;;;;;;;;;;5096699;28;20039;-70
2022/12/20 00:15:47;;;;;;;11.15;2.08;;;;;;;;;;5095953;28;20037;-70
2022/12/20 00:18:13;;;;;;;10.73;2.55;;;;;;;;;;5096034;28;20552;-70
2022/12/20 00:20:39;;;;;;;6.25;2.03;;;;;;;;;;5095807;28;20036;-70
2022/12/20 00:23:05;;;;;;;12.65;2.35;;;;;;;;;;5096060;28;20089;-70
2022/12/20 00:25:32;;;;;;;9.88;2.20;;;;;;;;;;5095191;28;20115;-70
2022/12/20 00:27:58;;;;;;;8.27;2.28;;;;;;;;;;5095042;28;20081;-70
2022/12/20 00:30:24;;;;;;;10.20;2.55;;;;;;;;;;5095430;28;20036;-70
2022/12/20 00:32:50;;;;;;;8.95;2.30;;;;;;;;;;5095315;28;20068;-70
2022/12/20 00:35:16;;;;;;;12.43;2.55;;;;;;;;;;5095426;28;20032;-70
2022/12/20 00:37:42;;;;;;;12.82;2.50;;;;;;;;;;5094917;28;20043;-70
2022/12/20 00:40:09;;;;;;;11.43;2.42;;;;;;;;;;5095290;28;20043;-70
2022/12/20 00:42:35;;;;;;;10.45;2.00;;;;;;;;;;5095056;28;20378;-70
2022/12/20 00:45:01;;;;;;;10.43;2.40;;;;;;;;;;5094904;28;20503;-70
2022/12/20 00:47:27;;;;;;;16.77;2.78;;;;;;;;;;5094879;28;20425;-70
2022/12/20 00:49:54;;;;;;;18.75;3.97;;;;;;;;;;5095154;28;20074;-70
2022/12/20 00:52:20;;;;;;;12.32;2.40;;;;;;;;;;5095180;28;20090;-70
2022/12/20 00:54:46;;;;;;;12.93;3.60;;;;;;;;;;5095054;28;20190;-70
2022/12/20 00:57:12;;;;;;;8.77;2.88;;;;;;;;;;5095092;28;20046;-70
2022/12/20 00:59:38;;;;;;;14.25;3.13;;;;;;;;;;5094676;28;20360;-70
2022/12/20 01:02:04;;;;;;;15.90;3.00;;;;;;;;;;5095016;28;20052;-70
2022/12/20 01:04:31;;;;;;;13.52;2.33;;;;;;;;;;5095319;28;20036;-70
2022/12/20 01:06:57;;;;;;;12.85;2.60;;;;;;;;;;5094772;28;20052;-70
2022/12/20 01:09:23;;;;;;;11.38;2.88;;;;;;;;;;5094576;28;20068;-70
2022/12/20 01:11:49;;;;;;;12.93;2.85;;;;;;;;;;5094581;28;20047;-70
2022/12/20 01:14:16;;;;;;;13.15;2.35;;;;;;;;;;5094853;28;20032;-70
2022/12/20 01:16:43;;;;;;;12.75;2.70;;;;;;;;;;5094592;28;20386;-70
2022/12/20 01:19:10;;;;;;;9.38;2.70;;;;;;;;;;5094768;28;20035;-70
2022/12/20 01:21:43;;;;;;;14.13;2.60;;;;;;;;;;5094848;28;20036;-70
2022/12/20 01:24:09;;;;;;;11.57;2.47;;;;;;;;;;5093900;28;20396;-70
2022/12/20 01:26:35;;;;;;;12.52;2.88;;;;;;;;;;5091905;28;20070;-70
2022/12/20 01:29:01;;;;;;;10.60;3.15;;;;;;;;;;5093433;28;20194;-70
2022/12/20 01:31:28;;;;;;;12.18;2.85;;;;;;;;;;5094024;28;20048;-70
2022/12/20 01:33:54;;;;;;;9.20;2.58;;;;;;;;;;5093617;28;20036;-70
2022/12/20 01:36:25;;;;;;;17.65;2.55;;;;;;;;;;5094750;28;20054;-70
2022/12/20 01:38:51;;;;;;;17.30;2.92;;;;;;;;;;5096387;28;20119;-70
2022/12/20 01:41:18;;;;;;;10.75;2.92;;;;;;;;;;5096657;28;20044;-70
2022/12/20 01:43:47;;;;;;;15.02;3.08;;;;;;;;;;5096407;28;20124;-70
2022/12/20 01:46:13;;;;;;;12.07;2.60;;;;;;;;;;5099747;28;20032;-70
2022/12/20 01:48:40;;;;;;;13.13;2.88;;;;;;;;;;5115676;28;20110;-70
2022/12/20 01:51:06;;;;;;;11.15;2.83;;;;;;;;;;5116279;28;20563;-70
2022/12/20 01:53:33;;;;;;;13.02;2.78;;;;;;;;;;5117453;28;20040;-70
2022/12/20 01:56:01;;;;;;;13.30;2.75;;;;;;;;;;5118509;28;20040;-70
2022/12/20 01:58:27;;;;;;;7.05;2.33;;;;;;;;;;5118161;28;20036;-70
2022/12/20 02:00:53;;;;;;;8.93;3.10;;;;;;;;;;5118786;28;20043;-70
2022/12/20 02:03:19;;;;;;;10.13;2.17;;;;;;;;;;5119061;28;20031;-70
2022/12/20 02:05:46;;;;;;;8.98;3.10;;;;;;;;;;5118715;28;20035;-70
2022/12/20 02:08:16;;;;;;;11.23;3.22;;;;;;;;;;5118452;28;20024;-70
2022/12/20 02:10:51;;;;;;;13.18;2.88;;;;;;;;;;5118287;28;20052;-70
2022/12/20 02:13:33;;;;;;;11.15;2.50;;;;;;;;;;5118877;28;20230;-70
2022/12/20 02:16:00;;;;;;;8.75;2.38;;;;;;;;;;5118485;28;20084;-70
2022/12/20 02:18:29;;;;;;;11.55;2.45;;;;;;;;;;5118699;28;20092;-70
2022/12/20 02:20:55;;;;;;;8.63;2.63;;;;;;;;;;5118353;28;20031;-70
2022/12/20 02:23:21;;;;;;;12.00;2.65;;;;;;;;;;5118338;28;20028;-70
2022/12/20 02:25:50;;;;;;;13.45;2.85;;;;;;;;;;5117942;28;20039;-70
2022/12/20 02:28:16;;;;;;;13.98;2.53;;;;;;;;;;5118300;28;20382;-70
2022/12/20 02:30:44;;;;;;;12.85;2.30;;;;;;;;;;5118104;28;20044;-70
2022/12/20 02:33:11;;;;;;;9.63;2.10;;;;;;;;;;5118471;28;20081;-70
2022/12/20 02:35:39;;;;;;;9.43;2.33;;;;;;;;;;5118129;28;20045;-70
2022/12/20 02:38:26;;;;;;;11.27;2.92;;;;;;;;;;5117890;28;20062;-70
2022/12/20 02:40:55;;;;;;;12.73;2.92;;;;;;;;;;5118338;28;20065;-72
2022/12/20 02:46:07;;;;;;;14.35;2.85;;;;;;;;;;5117069;28;20575;-72
2022/12/20 02:48:34;;;;;;;12.25;2.33;;;;;;;;;;5115901;28;20035;-72
2022/12/20 02:51:02;;;;;;;11.25;2.65;;;;;;;;;;5117742;28;20046;-72
2022/12/20 02:53:28;;;;;;;9.07;2.17;;;;;;;;;;5117747;28;20084;-72
2022/12/20 02:56:16;;;;;;;12.43;3.05;;;;;;;;;;5117557;28;20058;-72
2022/12/20 02:58:54;;;;;;;11.98;2.30;;;;;;;;;;5117885;28;20049;-72
2022/12/20 03:01:26;;;;;;;8.50;2.30;;;;;;;;;;5117481;28;20039;-72
2022/12/20 03:03:53;;;;;;;10.48;2.03;;;;;;;;;;5117700;28;20043;-73
2022/12/20 03:06:19;;;;;;;10.25;2.10;;;;;;;;;;5117424;28;20489;-73
2022/12/20 03:08:46;;;;;;;8.52;2.25;;;;;;;;;;5117287;28;20039;-72
2022/12/20 03:11:13;;;;;;;8.68;2.10;;;;;;;;;;5117165;28;20039;-72
2022/12/20 03:13:39;;;;;;;11.60;2.88;;;;;;;;;;5117091;28;20050;-72
2022/12/20 03:16:06;;;;;;;8.95;2.22;;;;;;;;;;5117339;28;20115;-72
2022/12/20 03:18:32;;;;;;;11.20;2.85;;;;;;;;;;5117086;28;20044;-72
2022/12/20 03:20:58;;;;;;;15.73;2.67;;;;;;;;;;5117231;28;20048;-72
2022/12/20 03:23:24;;;;;;;8.95;2.63;;;;;;;;;;5116985;28;20054;-72
2022/12/20 03:25:50;;;;;;;10.80;2.45;;;;;;;;;;5116845;28;20043;-72
2022/12/20 03:28:16;;;;;;;7.57;1.67;;;;;;;;;;5117352;28;20028;-72
2022/12/20 03:30:42;;;;;;;8.63;2.35;;;;;;;;;;5116655;28;20043;-72
2022/12/20 03:33:08;;;;;;;11.07;2.35;;;;;;;;;;5116430;28;20031;-72
2022/12/20 03:35:35;;;;;;;11.57;2.15;;;;;;;;;;5116951;28;20036;-72
2022/12/20 03:38:01;;;;;;;13.95;2.50;;;;;;;;;;5116782;28;20031;-72
2022/12/20 03:40:27;;;;;;;8.15;2.10;;;;;;;;;;5117238;28;20047;-72
2022/12/20 03:42:53;;;;;;;8.18;2.28;;;;;;;;;;5116934;28;20039;-72
2022/12/20 03:45:19;;;;;;;10.27;2.40;;;;;;;;;;5116465;28;20066;-73
2022/12/20 03:47:45;;;;;;;13.98;2.85;;;;;;;;;;5117282;28;20071;-72
2022/12/20 03:50:12;;;;;;;5.78;1.90;;;;;;;;;;5116462;28;20582;-72
2022/12/20 03:52:39;;;;;;;7.05;2.13;;;;;;;;;;5116164;28;20156;-72
2022/12/20 03:55:05;;;;;;;9.98;2.10;;;;;;;;;;5116491;28;20039;-72
2022/12/20 03:57:31;;;;;;;11.38;2.38;;;;;;;;;;5117109;28;20038;-72
2022/12/20 03:59:57;;;;;;;10.45;2.47;;;;;;;;;;5116629;28;20036;-72
2022/12/20 04:02:23;;;;;;;10.70;2.30;;;;;;;;;;5116199;28;20036;-72
2022/12/20 04:04:50;;;;;;;5.78;1.90;;;;;;;;;;5116058;28;20416;-72
2022/12/20 04:07:16;;;;;;;7.55;2.15;;;;;;;;;;5116141;28;20066;-72
2022/12/20 04:09:42;;;;;;;10.80;2.25;;;;;;;;;;5115989;28;20039;-72
2022/12/20 04:12:08;;;;;;;9.38;2.30;;;;;;;;;;5116374;28;20486;-72
2022/12/20 04:14:36;;;;;;;10.82;2.30;;;;;;;;;;5115894;28;20492;-72
2022/12/20 04:17:02;;;;;;;11.73;2.08;;;;;;;;;;5116121;28;20031;-72
2022/12/20 04:19:28;;;;;;;9.70;2.67;;;;;;;;;;5116093;28;20039;-72
2022/12/20 04:21:55;;;;;;;7.95;2.58;;;;;;;;;;5115640;28;20110;-72
2022/12/20 04:24:21;;;;;;;10.98;2.65;;;;;;;;;;5115909;28;20035;-72
2022/12/20 04:26:48;;;;;;;8.90;1.90;;;;;;;;;;5115605;28;20061;-72
2022/12/20 04:29:14;;;;;;;13.52;3.22;;;;;;;;;;5115539;28;20024;-72
2022/12/20 04:31:41;;;;;;;9.85;2.10;;;;;;;;;;5115900;28;20051;-72
2022/12/20 04:34:07;;;;;;;8.05;2.38;;;;;;;;;;5115489;28;20430;-72
2022/12/20 04:36:34;;;;;;;13.45;2.20;;;;;;;;;;5115767;28;20041;-72
2022/12/20 04:39:00;;;;;;;9.05;2.25;;;;;;;;;;5115855;28;20039;-72
2022/12/20 04:41:26;;;;;;;12.52;2.33;;;;;;;;;;5115448;28;20374;-72
2022/12/20 04:43:54;;;;;;;9.38;2.08;;;;;;;;;;5115369;28;20062;-72
2022/12/20 04:46:20;;;;;;;11.45;1.95;;;;;;;;;;5115231;28;20031;-72
2022/12/20 04:48:47;;;;;;;7.88;2.40;;;;;;;;;;5115308;27;20040;-72
2022/12/20 04:51:13;;;;;;;8.60;2.05;;;;;;;;;;5115084;28;20035;-72
2022/12/20 04:53:48;;;;;;;9.75;1.88;;;;;;;;;;5115942;28;20463;-72
2022/12/20 04:56:14;;;;;;;14.25;2.95;;;;;;;;;;5115179;28;20102;-72
2022/12/20 04:58:40;;;;;;;13.68;2.58;;;;;;;;;;5115432;28;20040;-72
2022/12/20 05:01:07;;;;;;;11.48;2.60;;;;;;;;;;5115061;28;20062;-72
2022/12/20 05:03:33;;;;;;;11.95;2.85;;;;;;;;;;5115716;28;20040;-72
2022/12/20 05:05:59;;;;;;;10.93;2.30;;;;;;;;;;5115370;28;20030;-72
2022/12/20 05:08:25;;;;;;;9.35;2.53;;;;;;;;;;5114812;28;20039;-72
2022/12/20 05:10:52;;;;;;;12.95;2.78;;;;;;;;;;5115141;28;20050;-72
2022/12/20 05:13:18;;;;;;;9.82;2.45;;;;;;;;;;5114822;28;20047;-72
2022/12/20 05:15:44;;;;;;;14.55;2.65;;;;;;;;;;5115189;28;20047;-72
2022/12/20 05:18:10;;;;;;;11.23;2.10;;;;;;;;;;5114881;28;20035;-72
2022/12/20 05:20:36;;;;;;;10.25;2.13;;;;;;;;;;5115230;28;20035;-72
2022/12/20 05:26:33;;;;;;;8.07;2.25;;;;;;;;;;5114354;28;20060;-72
2022/12/20 05:28:35;;;;;;;14.25;2.42;;;;;;;;;;5110557;28;20485;-72
2022/12/20 05:31:01;;;;;;;9.82;2.25;;;;;;;;;;5114932;28;20040;-72
2022/12/20 05:33:28;;;;;;;12.13;3.15;;;;;;;;;;5115379;28;20035;-72
2022/12/20 05:35:54;;;;;;;6.88;2.20;;;;;;;;;;5115139;28;20055;-72
2022/12/20 05:38:20;;;;;;;10.55;2.28;;;;;;;;;;5114546;28;20059;-72
2022/12/20 05:40:50;;;;;;;7.75;2.55;;;;;;;;;;5114679;28;20494;-72
2022/12/20 05:43:16;;;;;;;9.20;2.75;;;;;;;;;;5115551;28;20035;-72
2022/12/20 05:45:47;;;;;;;11.35;2.83;;;;;;;;;;5114899;28;20096;-72
2022/12/20 05:48:13;;;;;;;10.55;2.88;;;;;;;;;;5114832;28;20027;-72
2022/12/20 05:50:39;;;;;;;13.25;3.13;;;;;;;;;;5114762;28;20048;-72
2022/12/20 05:53:05;;;;;;;11.85;2.72;;;;;;;;;;5114698;28;20486;-72
2022/12/20 05:55:31;;;;;;;12.45;2.15;;;;;;;;;;5114783;28;20043;-72
2022/12/20 05:57:57;;;;;;;10.18;1.90;;;;;;;;;;5114785;28;20049;-72
2022/12/20 06:00:23;;;;;;;10.13;3.13;;;;;;;;;;5114477;28;20070;-72
2022/12/20 06:02:50;;;;;;;10.68;2.10;;;;;;;;;;5114583;28;20035;-72
2022/12/20 06:05:16;;;;;;;11.43;2.97;;;;;;;;;;5114718;28;20509;-72
2022/12/20 06:07:42;;;;;;;7.13;1.92;;;;;;;;;;5114544;28;20106;-72
2022/12/20 06:10:10;;;;;;;10.85;2.47;;;;;;;;;;5114515;28;20451;-72
2022/12/20 06:12:36;;;;;;;10.75;2.28;;;;;;;;;;5114777;28;20066;-72
2022/12/20 06:15:02;;;;;;;10.90;2.22;;;;;;;;;;5114623;28;20486;-72
2022/12/20 06:17:28;;;;;;;11.25;2.83;;;;;;;;;;5114891;28;20040;-72
2022/12/20 06:19:54;;;;;;;10.57;2.50;;;;;;;;;;5114296;28;20378;-72
2022/12/20 06:22:20;;;;;;;10.73;2.15;;;;;;;;;;5114853;28;20038;-72
2022/12/20 06:24:46;;;;;;;9.55;2.50;;;;;;;;;;5116870;28;20035;-72
2022/12/20 06:27:12;;;;;;;10.68;2.15;;;;;;;;;;5117833;28;20525;-72
2022/12/20 06:29:39;;;;;;;11.68;2.55;;;;;;;;;;5117909;28;20390;-72
2022/12/20 06:32:05;;;;;;;10.40;2.35;;;;;;;;;;5118759;28;20044;-72
2022/12/20 06:34:31;;;;;;;10.63;2.72;;;;;;;;;;5118071;28;20153;-72
2022/12/20 06:36:58;;;;;;;10.05;2.60;;;;;;;;;;5117673;28;20139;-72
2022/12/20 06:39:24;;;;;;;12.75;2.92;;;;;;;;;;5118019;28;20034;-72
2022/12/20 06:41:50;;;;;;;12.02;3.35;;;;;;;;;;5117803;28;20070;-72
2022/12/20 06:44:16;;;;;;;12.00;2.95;;;;;;;;;;5117969;28;20046;-72
2022/12/20 06:46:42;;;;;;;11.32;2.40;;;;;;;;;;5117988;28;20067;-72
2022/12/20 06:49:09;;;;;;;12.52;2.50;;;;;;;;;;5118282;28;20039;-72
2022/12/20 06:51:35;;;;;;;10.48;2.80;;;;;;;;;;5117876;28;20039;-72
2022/12/20 06:54:01;;;;;;;11.95;3.00;;;;;;;;;;5117360;28;20093;-72
2022/12/20 06:56:28;;;;;;;10.55;2.53;;;;;;;;;;5117752;28;20046;-72
2022/12/20 06:58:54;;;;;;;12.35;2.80;;;;;;;;;;5118578;28;20061;-72
2022/12/20 07:01:20;;;;;;;15.63;11.63;;;;;;;;;;5117723;28;20039;-72
2022/12/20 07:03:46;;;;;;;15.75;3.05;;;;;;;;;;5117380;28;20484;-72
2022/12/20 07:06:12;;;;;;;9.30;2.70;;;;;;;;;;5117225;28;20032;-72
2022/12/20 07:08:38;;;;;;;12.05;2.40;;;;;;;;;;5117595;28;20070;-72
2022/12/20 07:11:05;;;;;;;8.18;2.55;;;;;;;;;;5117369;28;20131;-72
2022/12/20 07:13:32;;;;;;;11.90;2.80;;;;;;;;;;5117704;28;20104;-72
2022/12/20 07:15:58;;;;;;;12.98;2.90;;;;;;;;;;5117340;28;20027;-72
2022/12/20 07:18:25;;;;;;;12.63;2.90;;;;;;;;;;5117807;28;20032;-72
2022/12/20 07:20:51;;;;;;;10.32;2.25;;;;;;;;;;5117618;28;20035;-72
2022/12/20 07:23:17;;;;;;;13.13;2.75;;;;;;;;;;5117355;28;20093;-72
2022/12/20 07:25:44;;;;;;;12.38;2.95;;;;;;;;;;5116890;28;20027;-72
2022/12/20 07:28:10;;;;;;;10.25;2.80;;;;;;;;;;5116470;28;20370;-72
2022/12/20 07:30:36;;;;;;;9.27;2.58;;;;;;;;;;5117207;28;20048;-72
2022/12/20 07:33:03;;;;;;;11.07;2.92;;;;;;;;;;5117480;28;20080;-72
2022/12/20 07:35:29;;;;;;;12.98;2.60;;;;;;;;;;5117190;28;20126;-72
2022/12/20 07:37:55;;;;;;;10.93;2.70;;;;;;;;;;5117610;28;20027;-72
2022/12/20 07:40:21;;;;;;;12.68;2.92;;;;;;;;;;5116919;28;20412;-72
2022/12/20 07:42:47;;;;;;;11.00;2.78;;;;;;;;;;5118018;28;20051;-72
2022/12/20 07:45:14;;;;;;;10.15;2.47;;;;;;;;;;5117114;28;20428;-72
2022/12/20 07:47:40;;;;;;;7.72;2.30;;;;;;;;;;5116971;28;20023;-72
2022/12/20 07:50:07;;;;;;;11.80;2.97;;;;;;;;;;5116969;28;20039;-72
2022/12/20 07:52:34;;;;;;;10.68;2.42;;;;;;;;;;5117211;28;20136;-72
2022/12/20 07:55:01;;;;;;;11.13;2.20;;;;;;;;;;5116571;28;20031;-72
2022/12/20 07:57:34;;;;;;;10.93;2.38;;;;;;;;;;5117136;28;20112;-72
2022/12/20 08:00:01;;;;;;;8.38;2.55;;;;;;;;;;5116531;28;20076;-72
2022/12/20 08:02:48;;;;;;;13.40;2.97;;;;;;;;;;5117035;28;20073;-72
2022/12/20 08:05:14;;;;;;;12.65;2.58;;;;;;;;;;5117187;28;20064;-72
2022/12/20 08:07:41;;;;;;;11.10;2.67;;;;;;;;;;5116161;28;20042;-72
2022/12/20 08:10:08;;;;;;;9.63;2.78;;;;;;;;;;5116351;28;20043;-72
2022/12/20 08:12:35;;;;;;;9.05;2.35;;;;;;;;;;5117417;28;20062;-72
2022/12/20 08:15:01;;;;;;;7.18;2.50;;;;;;;;;;5116445;28;20042;-72
2022/12/20 08:17:28;;;;;;;11.75;2.55;;;;;;;;;;5116495;28;20035;-73
2022/12/20 08:19:56;;;;;;;10.65;3.08;;;;;;;;;;5110095;28;20535;-72
2022/12/20 08:22:22;;;;;;;11.93;3.03;;;;;;;;;;5095838;28;20070;-72
2022/12/20 08:24:48;;;;;;;8.68;2.75;;;;;;;;;;5095721;28;20097;-72
2022/12/20 08:27:14;;;;;;;11.52;2.70;;;;;;;;;;5095336;28;20048;-72
2022/12/20 08:29:40;;;;;;;9.02;2.50;;;;;;;;;;5095520;28;20056;-72
2022/12/20 08:32:09;;;;;;;8.38;2.53;;;;;;;;;;5094836;28;20057;-71
2022/12/20 08:34:35;;;;;;;8.82;2.33;;;;;;;;;;5095061;28;20466;-72
2022/12/20 08:37:01;;;;;;;13.45;3.28;;;;;;;;;;5094797;28;20044;-72
2022/12/20 08:39:27;;;;;;;10.77;2.22;;;;;;;;;;5095057;28;20410;-72
2022/12/20 08:41:53;;;;;;;10.38;3.15;;;;;;;;;;5095404;28;20556;-72
2022/12/20 08:44:19;;;;;;;10.25;2.30;;;;;;;;;;5097222;28;20513;-71
2022/12/20 08:46:45;;;;;;;8.38;2.22;;;;;;;;;;5096051;28;20032;-71
2022/12/20 08:49:12;;;;;;;11.35;2.38;;;;;;;;;;5094916;28;20028;-72
2022/12/20 08:51:39;;;;;;;8.35;2.22;;;;;;;;;;5094480;28;20044;-72
2022/12/20 08:54:05;;;;;;;6.63;2.25;;;;;;;;;;5094703;28;20193;-70
2022/12/20 08:56:31;;;;;;;12.52;3.20;;;;;;;;;;5094789;28;20047;-70
2022/12/20 08:58:57;;;;;;;9.35;2.88;;;;;;;;;;5089605;28;20066;-70
2022/12/20 09:01:25;;;;;;;9.88;2.63;;;;;;;;;;5074549;28;20097;-69
2022/12/20 09:03:51;;;;;;;10.55;2.30;;;;;;;;;;5089788;28;20066;-70
2022/12/20 09:06:21;;;;;;;11.27;2.90;;;;;;;;;;5105704;28;20102;-70
2022/12/20 09:08:47;;;;;;;10.40;1.83;;;;;;;;;;5096028;28;20039;-69
2022/12/20 09:11:15;;;;;;;9.18;2.60;;;;;;;;;;5113175;28;20546;-69
2022/12/20 09:13:41;;;;;;;7.55;2.28;;;;;;;;;;5098018;28;20039;-70
2022/12/20 09:16:08;;;;;;;5.32;1.90;;;;;;;;;;5108411;28;20054;-68
2022/12/20 09:18:34;;;;;;;9.40;3.03;;;;;;;;;;5103327;28;20082;-69
2022/12/20 09:21:01;;;;;;;13.50;3.05;;;;;;;;;;5094697;28;20371;-69
2022/12/20 09:23:28;;;;;;;14.68;4.28;;;;;;;;;;5097606;28;20036;-69
2022/12/20 09:25:54;;;;;;;10.98;2.67;;;;;;;;;;5093390;28;20048;-70
2022/12/20 09:28:21;;;;;;;10.05;2.67;;;;;;;;;;5097954;28;20047;-68
2022/12/20 09:30:47;;;;;;;8.93;2.13;;;;;;;;;;5093851;28;20553;-68
2022/12/20 09:33:13;;;;;;;10.95;2.35;;;;;;;;;;5094062;28;20498;-68
2022/12/20 09:35:49;;;;;;;9.90;2.95;;;;;;;;;;5097104;28;20047;-69
2022/12/20 09:38:15;;;;;;;13.20;2.85;;;;;;;;;;5094418;28;20028;-68
2022/12/20 09:40:45;;;;;;;9.88;4.00;;;;;;;;;;5094614;28;20074;-68
2022/12/20 09:43:12;;;;;;;12.43;3.67;;;;;;;;;;5095276;28;20091;-68
2022/12/20 09:45:38;;;;;;;8.10;2.88;;;;;;;;;;5094531;28;20042;-68
2022/12/20 09:48:04;;;;;;;11.05;2.30;;;;;;;;;;5094528;28;20036;-67
2022/12/20 09:50:47;;;;;;;8.20;2.08;;;;;;;;;;5094388;28;20042;-68
2022/12/20 09:53:28;;;;;;;8.07;2.72;;;;;;;;;;5094329;28;20509;-68
2022/12/20 09:55:59;;;;;;;12.20;2.20;;;;;;;;;;5094837;28;20046;-68
2022/12/20 09:58:43;;;;;;;14.00;2.60;;;;;;;;;;5094752;28;20046;-68
2022/12/20 10:01:30;;;;;;;13.95;3.13;;;;;;;;;;5098698;28;20039;-68
2022/12/20 10:03:57;;;;;;;10.73;2.65;;;;;;;;;;5099148;28;20036;-68
2022/12/20 10:06:23;;;;;;;9.52;2.47;;;;;;;;;;5098628;28;20039;-68
2022/12/20 10:08:52;;;;;;;14.43;2.67;;;;;;;;;;5098356;28;20028;-67
2022/12/20 10:11:18;;;;;;;10.50;2.72;;;;;;;;;;5098026;28;20044;-68
2022/12/20 10:13:54;;;;;;;10.77;2.65;;;;;;;;;;5098851;28;20073;-67
2022/12/20 10:16:33;;;;;;;10.20;2.60;;;;;;;;;;5098478;28;20036;-67
2022/12/20 10:19:17;;;;;;;9.50;2.67;;;;;;;;;;5097941;28;20044;-68
2022/12/20 10:21:53;;;;;;;10.35;2.40;;;;;;;;;;5097685;28;20068;-70
2022/12/20 10:24:21;;;;;;;11.32;2.33;;;;;;;;;;5092831;28;20043;-69
2022/12/20 10:26:50;;;;;;;10.43;2.83;;;;;;;;;;5097601;28;20059;-68
2022/12/20 10:29:17;;;;;;;11.80;2.80;;;;;;;;;;5094717;28;20483;-68
2022/12/20 10:31:43;;;;;;;9.68;2.70;;;;;;;;;;5089414;28;20078;-69
2022/12/20 10:34:09;;;;;;;12.73;2.60;;;;;;;;;;5086740;28;20509;-68
2022/12/20 10:36:36;;;;;;;10.43;2.90;;;;;;;;;;5092595;28;20043;-68
2022/12/20 10:39:07;;;;;;;12.90;2.45;;;;;;;;;;5094799;28;20124;-67
2022/12/20 10:41:47;;;;;;;9.23;2.00;;;;;;;;;;5090188;28;20039;-67
2022/12/20 10:44:25;;;;;;;7.15;2.00;;;;;;;;;;5085629;28;20028;-69
2022/12/20 10:46:52;;;;;;;7.47;2.30;;;;;;;;;;5090462;28;20077;-69
2022/12/20 10:49:28;;;;;;;16.55;2.42;;;;;;;;;;5092410;28;20040;-69
2022/12/20 10:51:57;;;;;;;11.88;2.58;;;;;;;;;;5096083;28;20048;-69
2022/12/20 10:54:28;;;;;;;13.45;2.22;;;;;;;;;;5094960;28;20024;-69
2022/12/20 10:56:59;;;;;;;12.18;2.65;;;;;;;;;;5084637;28;20052;-71
2022/12/20 10:59:25;;;;;;;;;;;;;;;;;;5095265;28;20060;-70
2022/12/20 11:01:52;;;;;;;10.63;2.78;;;;;;;;;;5096037;28;19904;-71
2022/12/20 11:04:21;;;;;;;12.02;3.20;;;;;;;;;;5096176;28;20028;-71
2022/12/20 11:06:47;;;;;;;10.05;2.13;;;;;;;;;;5095837;28;20032;-70
2022/12/20 11:09:22;;;;;;;15.75;2.80;;;;;;;;;;5104120;28;20036;-71
2022/12/20 11:11:59;;;;;;;13.35;2.63;;;;;;;;;;5117304;28;20047;-70
2022/12/20 11:14:25;;;;;;;8.68;2.15;;;;;;;;;;5100458;28;20038;-71
2022/12/20 11:16:52;;;;;;;8.93;2.50;;;;;;;;;;5110698;28;20474;-71
2022/12/20 11:19:41;;;;;;;9.63;2.17;;;;;;;;;;5096348;28;20398;-71
2022/12/20 11:22:22;;;;;;;8.18;2.55;;;;;;;;;;5103940;28;20051;-71
2022/12/20 11:24:56;;;;;;;9.45;3.30;;;;;;;;;;5095794;28;20036;-70
2022/12/20 11:27:41;;;;;;;13.35;2.15;;;;;;;;;;5096069;28;20055;-71
2022/12/20 11:30:20;;;;;;;11.48;2.38;;;;;;;;;;5096735;28;20036;-70
2022/12/20 11:32:46;;;;;;;10.40;2.42;;;;;;;;;;5099311;28;20039;-71
2022/12/20 11:35:26;;;;;;;7.30;2.35;;;;;;;;;;5096006;28;20028;-71
2022/12/20 11:38:11;;;;;;;8.55;2.65;;;;;;;;;;5115028;28;20044;-70
2022/12/20 11:41:08;;;;;;;8.32;2.35;;;;;;;;;;5086282;28;20036;-70
2022/12/20 11:43:47;;;;;;;9.52;2.45;;;;;;;;;;5053751;28;20037;-70
2022/12/20 11:46:36;;;;;;;14.32;2.83;;;;;;;;;;5089788;28;20032;-70
2022/12/20 11:49:07;;;;;;;11.15;2.88;;;;;;;;;;5092485;28;20047;-71
2022/12/20 11:51:34;;;;;;;10.18;2.78;;;;;;;;;;5092447;28;20058;-71
2022/12/20 11:54:02;;;;;;;7.95;2.55;;;;;;;;;;5093201;28;20035;-71
2022/12/20 11:56:34;;;;;;;10.35;2.75;;;;;;;;;;5088713;28;20070;-72
2022/12/20 11:59:05;;;;;;;13.63;2.67;;;;;;;;;;5076938;28;20037;-71
2022/12/20 12:01:35;;;;;;;10.93;2.78;;;;;;;;;;5087010;28;20578;-71
2022/12/20 12:04:09;;;;;;;16.38;2.83;;;;;;;;;;5094041;28;20036;-71
2022/12/20 12:06:41;;;;;;;9.45;2.78;;;;;;;;;;5093634;28;20044;-70
2022/12/20 12:09:40;;;;;;;13.02;2.67;;;;;;;;;;5093261;28;20066;-71
2022/12/20 12:12:25;;;;;;;7.93;2.75;;;;;;;;;;5080047;28;20510;-75
2022/12/20 12:15:18;;;;;;;14.32;3.25;;;;;;;;;;5093534;28;20064;-72
2022/12/20 12:17:46;;;;;;;9.75;2.38;;;;;;;;;;5093205;28;20040;-73
2022/12/20 12:20:18;;;;;;;11.88;3.13;;;;;;;;;;5093266;28;20141;-73
2022/12/20 12:22:46;;;;;;;8.70;2.75;;;;;;;;;;5091331;28;20411;-74
2022/12/20 12:25:15;;;;;;;6.55;2.42;;;;;;;;;;5093003;28;20039;-75
2022/12/20 12:27:41;;;;;;;11.93;2.72;;;;;;;;;;5093477;28;20082;-75
2022/12/20 12:30:11;;;;;;;10.25;2.33;;;;;;;;;;5093482;28;20028;-71
2022/12/20 12:32:40;;;;;;;6.60;3.22;;;;;;;;;;5093741;28;20048;-71
2022/12/20 12:35:25;;;;;;;10.07;2.22;;;;;;;;;;5093113;28;20036;-71
2022/12/20 12:37:51;;;;;;;9.10;2.78;;;;;;;;;;5093028;28;20020;-71
2022/12/20 12:40:26;;;;;;;6.95;2.67;;;;;;;;;;5093222;28;20601;-71
2022/12/20 12:43:10;;;;;;;10.02;2.25;;;;;;;;;;5092943;28;20110;-71
2022/12/20 12:45:42;;;;;;;9.20;2.20;;;;;;;;;;5079754;28;20046;-72
2022/12/20 12:48:11;;;;;;;13.50;2.50;;;;;;;;;;5091571;28;20039;-72
2022/12/20 12:50:38;;;;;;;7.15;2.20;;;;;;;;;;5092600;28;20072;-72
2022/12/20 12:53:07;;;;;;;7.55;2.10;;;;;;;;;;5092745;28;20040;-72
2022/12/20 12:55:39;;;;;;;13.25;3.03;;;;;;;;;;5091873;28;20051;-72
2022/12/20 12:58:24;;;;;;;8.82;2.22;;;;;;;;;;5090283;28;20039;-72
2022/12/20 13:00:52;;;;;;;18.67;2.55;;;;;;;;;;5091549;28;20084;-72
2022/12/20 13:03:37;;;;;;;9.98;2.25;;;;;;;;;;5092626;28;20032;-72
2022/12/20 13:06:22;;;;;;;11.23;3.00;;;;;;;;;;5092355;28;20028;-72
2022/12/20 13:09:08;;;;;;;12.00;2.47;;;;;;;;;;5092461;28;20036;-71
2022/12/20 13:11:39;;;;;;;14.55;3.13;;;;;;;;;;5086539;28;20043;-69
2022/12/20 13:14:23;;;;;;;8.90;3.08;;;;;;;;;;5092894;28;20127;-71
2022/12/20 13:16:50;;;;;;;9.60;2.75;;;;;;;;;;5092970;28;20036;-72
2022/12/20 13:19:17;;;;;;;6.60;2.25;;;;;;;;;;5093053;28;20066;-72
2022/12/20 13:21:47;;;;;;;12.13;4.93;;;;;;;;;;5092227;28;20040;-72
2022/12/20 13:24:32;;;;;;;11.02;2.53;;;;;;;;;;5083620;28;20035;-73
2022/12/20 13:26:59;;;;;;;9.88;2.72;;;;;;;;;;5083915;28;20542;-73
2022/12/20 13:29:27;;;;;;;6.95;2.45;;;;;;;;;;5092069;28;20032;-73
2022/12/20 13:31:54;;;;;;;9.43;2.45;;;;;;;;;;5092157;28;20055;-73
2022/12/20 13:34:50;;;;;;;16.33;3.08;;;;;;;;;;5098100;28;20653;-73
2022/12/20 13:37:48;;;;;;;10.07;2.78;;;;;;;;;;5085045;28;20574;-73
2022/12/20 13:40:32;;;;;;;11.80;2.72;;;;;;;;;;5100209;28;20089;-69
2022/12/20 13:43:02;;;;;;;9.07;2.75;;;;;;;;;;5100432;28;20494;-71
2022/12/20 13:45:28;;;;;;;13.27;3.65;;;;;;;;;;5102057;28;20036;-70
2022/12/20 13:47:56;;;;;;;7.97;2.50;;;;;;;;;;5101204;28;20066;-72
2022/12/20 13:50:28;;;;;;;10.25;2.67;;;;;;;;;;5105350;28;20036;-70
2022/12/20 13:52:56;;;;;;;5.47;2.28;;;;;;;;;;5101371;28;20557;-70
2022/12/20 13:55:36;;;;;;;8.43;2.38;;;;;;;;;;5111816;27;20057;-69
2022/12/20 13:58:07;;;;;;;9.40;2.90;;;;;;;;;;5103457;28;20386;-69
2022/12/20 14:00:33;;;;;;;7.78;2.35;;;;;;;;;;5101932;28;20058;-69
2022/12/20 14:03:00;;;;;;;12.93;2.83;;;;;;;;;;5100075;28;20036;-69
2022/12/20 14:05:31;;;;;;;9.23;2.40;;;;;;;;;;5100376;28;20070;-72
2022/12/20 14:08:02;;;;;;;14.52;3.15;;;;;;;;;;5099970;28;20028;-72
2022/12/20 14:10:30;;;;;;;10.68;3.00;;;;;;;;;;5097449;28;20059;-72
2022/12/20 14:12:56;;;;;;;12.55;2.60;;;;;;;;;;5074882;28;20140;-71
2022/12/20 14:15:23;;;;;;;7.03;2.92;;;;;;;;;;5082183;28;20085;-70
2022/12/20 14:17:50;;;;;;;18.13;5.50;;;;;;;;;;5093081;28;20036;-71
2022/12/20 14:20:17;;;;;;;12.88;4.28;;;;;;;;;;5099192;28;20590;-70
2022/12/20 14:22:46;;;;;;;6.80;2.88;;;;;;;;;;5099763;28;20115;-70
2022/12/20 14:25:14;;;;;;;9.15;3.58;;;;;;;;;;5116367;28;20024;-69
2022/12/20 14:27:40;;;;;;;12.23;2.80;;;;;;;;;;5103204;27;20490;-69
2022/12/20 14:30:07;;;;;;;7.85;2.53;;;;;;;;;;5119042;28;20032;-68
2022/12/20 14:32:33;;;;;;;5.55;2.33;;;;;;;;;;5108557;28;20055;-68
2022/12/20 14:34:59;;;;;;;6.20;2.33;;;;;;;;;;5101728;28;20070;-68
2022/12/20 14:37:30;;;;;;;33.22;18.77;;;;;;;;;;5098116;28;20043;-68
2022/12/20 14:40:00;;;;;;;9.13;3.33;;;;;;;;;;5092841;28;20060;-69
2022/12/20 14:42:29;;;;;;;6.03;2.28;;;;;;;;;;5097699;28;20125;-69
2022/12/20 14:45:10;;;;;;;11.63;2.92;;;;;;;;;;5096338;28;20505;-69
2022/12/20 14:47:37;;;;;;;9.60;2.80;;;;;;;;;;5094082;28;20432;-69
2022/12/20 14:50:21;;;;;;;9.50;2.80;;;;;;;;;;5094780;28;20166;-68
2022/12/20 14:52:47;;;;;;;7.93;3.63;;;;;;;;;;5093821;28;20055;-68